createdAt,value
2017-12-27T00:02:21.668Z,99547.44
2017-12-27T00:04:54.898Z,99533.33
2017-12-27T00:07:28.509Z,99535.80
2017-12-27T00:10:02.719Z,99532.73
2017-12-27T00:15:36.812Z,99522.02
2017-12-27T00:21:10.263Z,99512.45
2017-12-27T00:23:43.776Z,99507.17
2017-12-27T00:26:16.913Z,99508.22
2017-12-27T00:28:50.370Z,99500.30
2017-12-27T00:31:17.932Z,99494.47
2017-12-27T00:33:45.523Z,99495.51
2017-12-27T00:36:13.131Z,99502.78
2017-12-27T00:38:40.739Z,99499.20
2017-12-27T00:41:08.693Z,99500.38
2017-12-27T00:43:36.554Z,99492.73
2017-12-27T00:46:04.122Z,99497.84
2017-12-27T00:48:31.781Z,99493.97
2017-12-27T00:50:59.350Z,99493.78
2017-12-27T00:53:26.972Z,99489.28
2017-12-27T00:55:54.543Z,99483.48
2017-12-27T00:58:22.103Z,99478.30
2017-12-27T01:00:49.727Z,99464.83
2017-12-27T01:03:17.291Z,99462.03
2017-12-27T01:05:44.921Z,99459.95
2017-12-27T01:08:12.510Z,99457.08
2017-12-27T01:10:40.445Z,99457.91
2017-12-27T01:13:08.070Z,99461.02
2017-12-27T01:15:35.628Z,99459.78
2017-12-27T01:18:03.239Z,99463.97
2017-12-27T01:20:30.821Z,99463.25
2017-12-27T01:22:58.411Z,99472.14
2017-12-27T01:25:26.023Z,99466.72
2017-12-27T01:27:53.617Z,99476.55
2017-12-27T01:30:21.254Z,99476.90
2017-12-27T01:32:48.815Z,99475.73
2017-12-27T01:35:16.399Z,99473.86
2017-12-27T01:37:44.320Z,99474.01
2017-12-27T01:40:11.908Z,99467.66
2017-12-27T01:42:39.518Z,99465.67
2017-12-27T01:45:07.095Z,99462.87
2017-12-27T01:47:34.975Z,99459.41
2017-12-27T01:50:02.587Z,99446.54
2017-12-27T01:52:30.148Z,99447.28
2017-12-27T01:54:57.772Z,99448.17
2017-12-27T01:57:25.367Z,99444.54
2017-12-27T01:59:52.944Z,99440.55
2017-12-27T02:02:20.849Z,99443.47
2017-12-27T02:04:48.419Z,99437.87
2017-12-27T02:07:16.049Z,99443.66
2017-12-27T02:09:43.622Z,99434.84
2017-12-27T02:12:11.238Z,99428.57
2017-12-27T02:14:38.844Z,99423.38
2017-12-27T02:17:06.416Z,99414.95
2017-12-27T02:19:34.037Z,99410.92
2017-12-27T02:22:01.645Z,99404.84
2017-12-27T02:24:29.271Z,99399.07
2017-12-27T02:26:56.911Z,99407.16
2017-12-27T02:29:24.488Z,99406.83
2017-12-27T02:31:55.341Z,99404.36
2017-12-27T02:34:22.928Z,99395.95
2017-12-27T02:36:50.508Z,99389.20
2017-12-27T02:39:26.551Z,99372.77
2017-12-27T02:41:54.127Z,99374.44
2017-12-27T02:44:21.734Z,99382.27
2017-12-27T02:46:49.300Z,99368.99
2017-12-27T02:49:17.156Z,99367.43
2017-12-27T02:51:44.764Z,99366.84
2017-12-27T02:54:12.340Z,99367.94
2017-12-27T02:56:39.932Z,99354.11
2017-12-27T02:59:07.853Z,99345.09
2017-12-27T03:01:35.523Z,99336.95
2017-12-27T03:04:03.393Z,99322.45
2017-12-27T03:06:30.992Z,99322.12
2017-12-27T03:08:58.580Z,99323.66
2017-12-27T03:11:26.476Z,99311.97
2017-12-27T03:13:54.448Z,99312.13
2017-12-27T03:16:22.021Z,99318.16
2017-12-27T03:18:49.608Z,99315.52
2017-12-27T03:21:17.214Z,99311.70
2017-12-27T03:23:44.792Z,99313.45
2017-12-27T03:26:12.398Z,99309.20
2017-12-27T03:28:39.958Z,99306.61
2017-12-27T03:31:07.784Z,99314.45
2017-12-27T03:33:35.383Z,99300.68
2017-12-27T03:36:02.943Z,99304.77
2017-12-27T03:38:30.548Z,99307.95
2017-12-27T03:40:58.110Z,99291.30
2017-12-27T03:43:25.689Z,99290.55
2017-12-27T03:45:53.301Z,99283.64
2017-12-27T03:48:20.876Z,99283.49
2017-12-27T03:50:48.499Z,99281.59
2017-12-27T03:53:16.072Z,99279.94
2017-12-27T03:55:43.639Z,99274.38
2017-12-27T03:58:11.248Z,99267.61
2017-12-27T04:00:38.830Z,99264.05
2017-12-27T04:03:06.896Z,99268.90
2017-12-27T04:05:34.477Z,99263.46
2017-12-27T04:08:02.042Z,99266.27
2017-12-27T04:10:29.639Z,99258.69
2017-12-27T04:12:57.206Z,99256.45
2017-12-27T04:15:24.845Z,99253.55
2017-12-27T04:17:52.423Z,99242.12
2017-12-27T04:20:20.026Z,99235.20
2017-12-27T04:22:47.684Z,99245.19
2017-12-27T04:25:15.255Z,99240.08
2017-12-27T04:27:43.113Z,99238.02
2017-12-27T04:30:10.711Z,99238.59
2017-12-27T04:32:38.305Z,99226.73
2017-12-27T04:35:05.967Z,99225.06
2017-12-27T04:37:33.570Z,99223.49
2017-12-27T04:40:01.528Z,99208.25
2017-12-27T04:42:29.135Z,99199.09
2017-12-27T04:44:56.957Z,99194.09
2017-12-27T04:47:24.575Z,99185.53
2017-12-27T04:49:52.496Z,99185.28
2017-12-27T04:52:20.106Z,99171.38
2017-12-27T04:54:47.678Z,99172.63
2017-12-27T04:57:15.253Z,99172.87
2017-12-27T04:59:42.860Z,99168.55
2017-12-27T05:02:10.431Z,99156.88
2017-12-27T05:04:38.044Z,99151.85
2017-12-27T05:07:05.945Z,99149.66
2017-12-27T05:09:33.522Z,99152.46
2017-12-27T05:12:01.114Z,99146.66
2017-12-27T05:14:28.683Z,99153.91
2017-12-27T05:16:56.301Z,99157.67
2017-12-27T05:19:23.871Z,99150.07
2017-12-27T05:21:51.467Z,99149.50
2017-12-27T05:24:19.074Z,99143.23
2017-12-27T05:26:46.643Z,99148.13
2017-12-27T05:29:15.216Z,99139.11
2017-12-27T05:31:42.784Z,99130.71
2017-12-27T05:34:10.347Z,99121.02
2017-12-27T05:36:37.943Z,99116.66
2017-12-27T05:39:05.518Z,99119.53
2017-12-27T05:41:33.131Z,99119.92
2017-12-27T05:44:00.708Z,99116.84
2017-12-27T05:46:28.291Z,99114.41
2017-12-27T05:48:55.892Z,99106.28
2017-12-27T05:51:23.460Z,99102.19
2017-12-27T05:53:51.071Z,99103.42
2017-12-27T05:56:18.647Z,99103.75
2017-12-27T05:58:46.222Z,99097.59
2017-12-27T06:01:13.828Z,99096.69
2017-12-27T06:03:41.401Z,99105.91
2017-12-27T06:06:09.008Z,99114.14
2017-12-27T06:08:36.571Z,99103.95
2017-12-27T06:11:04.138Z,99098.44
2017-12-27T06:13:31.740Z,99095.70
2017-12-27T06:15:59.319Z,99090.12
2017-12-27T06:18:26.968Z,99080.33
2017-12-27T06:20:54.580Z,99076.52
2017-12-27T06:23:22.160Z,99065.24
2017-12-27T06:25:49.767Z,99069.19
2017-12-27T06:28:17.341Z,99062.30
2017-12-27T06:30:45.249Z,99053.96
2017-12-27T06:33:12.849Z,99050.59
2017-12-27T06:35:40.482Z,99039.91
2017-12-27T06:38:08.092Z,99037.75
2017-12-27T06:40:35.680Z,99030.70
2017-12-27T06:43:03.272Z,99022.02
2017-12-27T06:45:31.221Z,99019.75
2017-12-27T06:47:58.842Z,99013.91
2017-12-27T06:50:26.751Z,99012.34
2017-12-27T06:52:55.317Z,99014.78
2017-12-27T06:55:22.897Z,99013.70
2017-12-27T06:57:50.511Z,99010.53
2017-12-27T07:00:18.115Z,99016.95
2017-12-27T07:02:45.992Z,99015.93
2017-12-27T07:05:13.583Z,99015.93
2017-12-27T07:07:41.563Z,99014.73
2017-12-27T07:10:09.188Z,99012.95
2017-12-27T07:12:36.791Z,99012.50
2017-12-27T07:15:04.356Z,99018.77
2017-12-27T07:17:32.275Z,99008.99
2017-12-27T07:20:00.145Z,99002.87
2017-12-27T07:22:27.761Z,99005.47
2017-12-27T07:24:55.344Z,99006.22
2017-12-27T07:27:22.947Z,99006.46
2017-12-27T07:29:50.807Z,99003.17
2017-12-27T07:32:18.388Z,98997.41
2017-12-27T07:34:46.031Z,98996.75
2017-12-27T07:37:13.610Z,98989.09
2017-12-27T07:39:41.188Z,98986.41
2017-12-27T07:42:08.788Z,98976.00
2017-12-27T07:44:36.394Z,98967.31
2017-12-27T07:47:04.053Z,98967.61
2017-12-27T07:49:31.624Z,98957.56
2017-12-27T07:51:59.455Z,98957.44
2017-12-27T07:54:27.080Z,98952.87
2017-12-27T07:56:54.755Z,98953.77
2017-12-27T07:59:22.667Z,98951.14
2017-12-27T08:01:50.636Z,98943.65
2017-12-27T08:04:18.232Z,98945.00
2017-12-27T08:06:46.164Z,98935.88
2017-12-27T08:09:13.792Z,98938.05
2017-12-27T08:11:41.403Z,98938.63
2017-12-27T08:14:08.984Z,98931.22
2017-12-27T08:16:36.589Z,98925.03
2017-12-27T08:19:04.213Z,98927.91
2017-12-27T08:21:31.827Z,98927.78
2017-12-27T08:23:59.468Z,98912.05
2017-12-27T08:26:27.363Z,98922.41
2017-12-27T08:28:55.225Z,98920.36
2017-12-27T08:31:22.842Z,98905.49
2017-12-27T08:33:50.642Z,98907.75
2017-12-27T08:36:18.279Z,98894.45
2017-12-27T08:38:46.614Z,98900.36
2017-12-27T08:41:14.210Z,98889.68
2017-12-27T08:43:41.815Z,98885.25
2017-12-27T08:46:09.403Z,98883.13
2017-12-27T08:48:37.030Z,98874.74
2017-12-27T08:51:04.915Z,98874.91
2017-12-27T08:53:32.561Z,98863.72
2017-12-27T08:56:00.181Z,98864.70
2017-12-27T08:58:27.801Z,98871.38
2017-12-27T09:00:55.439Z,98873.78
2017-12-27T09:03:23.328Z,98875.81
2017-12-27T09:05:51.195Z,98873.84
2017-12-27T09:08:18.863Z,98882.20
2017-12-27T09:10:46.461Z,98878.13
2017-12-27T09:13:14.095Z,98872.88
2017-12-27T09:15:41.684Z,98872.16
2017-12-27T09:18:09.278Z,98863.31
2017-12-27T09:20:37.184Z,98864.72
2017-12-27T09:23:04.761Z,98857.94
2017-12-27T09:25:32.716Z,98856.06
2017-12-27T09:28:00.572Z,98846.30
2017-12-27T09:30:28.240Z,98841.05
2017-12-27T09:32:55.854Z,98836.59
2017-12-27T09:35:23.460Z,98831.08
2017-12-27T09:37:51.081Z,98822.66
2017-12-27T09:40:18.990Z,98810.26
2017-12-27T09:42:46.584Z,98807.96
2017-12-27T09:45:14.523Z,98804.47
2017-12-27T09:47:42.488Z,98802.30
2017-12-27T09:50:10.459Z,98795.11
2017-12-27T09:52:38.049Z,98790.38
2017-12-27T09:55:05.626Z,98782.27
2017-12-27T09:57:33.223Z,98774.00
2017-12-27T10:00:00.809Z,98772.10
2017-12-27T10:02:28.455Z,98760.19
2017-12-27T10:04:56.444Z,98756.02
2017-12-27T10:07:24.022Z,98757.23
2017-12-27T10:09:51.671Z,98747.58
2017-12-27T10:12:19.274Z,98739.02
2017-12-27T10:14:47.193Z,98734.67
2017-12-27T10:17:15.068Z,98723.42
2017-12-27T10:19:42.934Z,98720.24
2017-12-27T10:22:10.605Z,98725.28
2017-12-27T10:24:38.183Z,98727.33
2017-12-27T10:27:05.809Z,98724.19
2017-12-27T10:29:33.407Z,98730.39
2017-12-27T10:32:03.504Z,98723.78
2017-12-27T10:34:31.189Z,98718.17
2017-12-27T10:36:59.885Z,98712.33
2017-12-27T10:39:27.616Z,98707.55
2017-12-27T10:41:55.262Z,98707.59
2017-12-27T10:44:22.863Z,98700.41
2017-12-27T10:46:50.480Z,98703.33
2017-12-27T10:49:18.062Z,98689.96
2017-12-27T10:51:45.747Z,98698.03
2017-12-27T10:54:14.285Z,98685.45
2017-12-27T10:56:43.570Z,98680.30
2017-12-27T10:59:11.195Z,98674.83
2017-12-27T11:01:38.772Z,98669.35
2017-12-27T11:04:06.392Z,98670.98
2017-12-27T11:06:35.316Z,98655.73
2017-12-27T11:09:02.927Z,98643.73
2017-12-27T11:11:30.557Z,98634.57
2017-12-27T11:13:58.150Z,98626.23
2017-12-27T11:16:25.771Z,98620.34
2017-12-27T11:18:53.356Z,98611.25
2017-12-27T11:21:20.951Z,98609.30
2017-12-27T11:23:48.566Z,98607.02
2017-12-27T11:26:16.407Z,98605.02
2017-12-27T11:28:44.033Z,98599.52
2017-12-27T11:31:11.916Z,98594.03
2017-12-27T11:33:39.497Z,98587.52
2017-12-27T11:36:07.117Z,98580.53
2017-12-27T11:38:34.733Z,98570.38
2017-12-27T11:41:02.360Z,98564.19
2017-12-27T11:43:29.960Z,98560.31
2017-12-27T11:45:57.550Z,98551.30
2017-12-27T11:48:25.195Z,98542.66
2017-12-27T11:50:52.784Z,98534.03
2017-12-27T11:53:20.415Z,98532.91
2017-12-27T11:55:48.019Z,98529.75
2017-12-27T11:58:15.643Z,98525.89
2017-12-27T12:00:43.567Z,98525.98
2017-12-27T12:03:11.200Z,98514.86
2017-12-27T12:05:38.831Z,98501.31
2017-12-27T12:08:06.416Z,98493.05
2017-12-27T12:10:34.062Z,98497.84
2017-12-27T12:13:01.696Z,98487.66
2017-12-27T12:15:29.326Z,98481.84
2017-12-27T12:17:57.011Z,98473.48
2017-12-27T12:20:24.737Z,98466.86
2017-12-27T12:22:52.371Z,98457.41
2017-12-27T12:25:20.429Z,98444.48
2017-12-27T12:27:48.016Z,98443.25
2017-12-27T12:30:15.658Z,98446.61
2017-12-27T12:32:43.232Z,98448.15
2017-12-27T12:35:12.514Z,98439.83
2017-12-27T12:37:40.512Z,98435.22
2017-12-27T12:40:11.134Z,98430.16
2017-12-27T12:42:39.111Z,98431.17
2017-12-27T12:45:07.034Z,98424.75
2017-12-27T12:47:34.629Z,98414.97
2017-12-27T12:50:02.237Z,98422.30
2017-12-27T12:52:29.929Z,98422.79
2017-12-27T12:54:57.596Z,98419.86
2017-12-27T12:57:25.183Z,98419.14
2017-12-27T12:59:52.782Z,98420.87
2017-12-27T13:02:20.480Z,98412.83
2017-12-27T13:04:48.074Z,98408.53
2017-12-27T13:07:15.699Z,98416.48
2017-12-27T13:09:43.292Z,98419.35
2017-12-27T13:12:10.894Z,98412.42
2017-12-27T13:14:38.501Z,98404.47
2017-12-27T13:17:06.079Z,98389.83
2017-12-27T13:19:33.708Z,98396.35
2017-12-27T13:22:01.280Z,98379.74
2017-12-27T13:24:29.126Z,98374.66
2017-12-27T13:26:56.796Z,98367.94
2017-12-27T13:29:24.416Z,98369.16
2017-12-27T13:31:52.102Z,98369.76
2017-12-27T13:34:19.731Z,98360.62
2017-12-27T13:36:47.335Z,98360.52
2017-12-27T13:39:15.215Z,98364.27
2017-12-27T13:41:43.105Z,98367.03
2017-12-27T13:44:10.710Z,98360.95
2017-12-27T13:46:38.372Z,98366.72
2017-12-27T13:49:06.077Z,98368.77
2017-12-27T13:51:33.671Z,98357.46
2017-12-27T13:54:01.324Z,98341.80
2017-12-27T13:56:28.930Z,98339.77
2017-12-27T13:58:56.594Z,98337.65
2017-12-27T14:01:24.237Z,98327.23
2017-12-27T14:03:52.154Z,98339.78
2017-12-27T14:06:19.782Z,98353.22
2017-12-27T14:08:47.431Z,98350.36
2017-12-27T14:11:15.005Z,98350.58
2017-12-27T14:13:42.625Z,98339.25
2017-12-27T14:16:10.210Z,98337.52
2017-12-27T14:18:37.836Z,98333.28
2017-12-27T14:21:05.408Z,98326.03
2017-12-27T14:23:32.972Z,98332.33
2017-12-27T14:26:00.892Z,98340.48
2017-12-27T14:28:28.471Z,98335.20
2017-12-27T14:30:56.109Z,98335.70
2017-12-27T14:33:23.688Z,98341.51
2017-12-27T14:35:51.287Z,98331.93
2017-12-27T14:38:18.930Z,98333.17
2017-12-27T14:40:46.790Z,98334.06
2017-12-27T14:43:14.403Z,98328.39
2017-12-27T14:45:41.980Z,98313.94
2017-12-27T14:48:09.880Z,98311.09
2017-12-27T14:50:37.487Z,98298.57
2017-12-27T14:53:05.305Z,98290.23
2017-12-27T14:55:33.278Z,98301.03
2017-12-27T14:58:00.869Z,98302.45
2017-12-27T15:00:28.487Z,98295.34
2017-12-27T15:02:56.367Z,98287.09
2017-12-27T15:05:24.073Z,98304.72
2017-12-27T15:07:51.695Z,98303.70
2017-12-27T15:10:19.313Z,98293.63
2017-12-27T15:12:46.885Z,98293.73
2017-12-27T15:15:14.496Z,98287.94
2017-12-27T15:17:42.072Z,98279.09
2017-12-27T15:20:09.688Z,98280.90
2017-12-27T15:22:37.355Z,98288.34
2017-12-27T15:25:04.956Z,98289.45
2017-12-27T15:27:32.664Z,98284.46
2017-12-27T15:30:00.326Z,98282.83
2017-12-27T15:32:27.959Z,98288.24
2017-12-27T15:34:55.535Z,98282.52
2017-12-27T15:37:23.130Z,98287.30
2017-12-27T15:39:50.747Z,98293.40
2017-12-27T15:42:18.363Z,98297.67
2017-12-27T15:44:46.233Z,98297.86
2017-12-27T15:47:13.810Z,98296.57
2017-12-27T15:49:41.473Z,98301.36
2017-12-27T15:52:09.098Z,98300.55
2017-12-27T15:54:36.675Z,98296.47
2017-12-27T15:57:04.297Z,98299.94
2017-12-27T15:59:31.887Z,98296.67
2017-12-27T16:01:59.485Z,98291.50
2017-12-27T16:04:27.647Z,98279.69
2017-12-27T16:06:55.511Z,98265.54
2017-12-27T16:09:23.132Z,98265.05
2017-12-27T16:11:51.041Z,98264.73
2017-12-27T16:14:18.620Z,98263.52
2017-12-27T16:16:46.245Z,98258.84
2017-12-27T16:19:13.828Z,98256.52
2017-12-27T16:21:41.443Z,98256.31
2017-12-27T16:24:09.026Z,98251.53
2017-12-27T16:26:36.599Z,98255.59
2017-12-27T16:29:04.196Z,98263.22
2017-12-27T16:31:31.800Z,98264.64
2017-12-27T16:34:00.423Z,98254.87
2017-12-27T16:36:28.000Z,98251.22
2017-12-27T16:38:55.592Z,98243.80
2017-12-27T16:41:23.209Z,98248.37
2017-12-27T16:43:50.796Z,98250.20
2017-12-27T16:46:18.428Z,98245.63
2017-12-27T16:48:46.049Z,98250.00
2017-12-27T16:51:13.664Z,98261.91
2017-12-27T16:53:41.247Z,98269.84
2017-12-27T16:56:10.018Z,98269.44
2017-12-27T16:58:37.592Z,98274.50
2017-12-27T17:01:05.176Z,98273.80
2017-12-27T17:03:32.796Z,98286.50
2017-12-27T17:06:00.372Z,98287.41
2017-12-27T17:08:27.995Z,98275.53
2017-12-27T17:10:55.571Z,98267.08
2017-12-27T17:13:23.164Z,98275.42
2017-12-27T17:15:50.790Z,98277.25
2017-12-27T17:18:18.374Z,98267.69
2017-12-27T17:20:46.268Z,98267.52
2017-12-27T17:23:13.855Z,98276.95
2017-12-27T17:25:41.549Z,98279.50
2017-12-27T17:28:09.519Z,98271.56
2017-12-27T17:30:37.183Z,98275.02
2017-12-27T17:33:04.812Z,98281.92
2017-12-27T17:35:32.716Z,98278.67
2017-12-27T17:38:00.577Z,98271.66
2017-12-27T17:40:28.215Z,98261.20
2017-12-27T17:42:55.813Z,98265.66
2017-12-27T17:45:24.288Z,98270.77
2017-12-27T17:47:51.907Z,98260.19
2017-12-27T17:50:19.532Z,98265.77
2017-12-27T17:52:47.151Z,98266.08
2017-12-27T17:55:14.787Z,98262.41
2017-12-27T17:57:42.718Z,98264.66
2017-12-27T18:00:10.298Z,98262.31
2017-12-27T18:02:38.127Z,98258.13
2017-12-27T18:05:07.264Z,98259.45
2017-12-27T18:07:34.838Z,98260.16
2017-12-27T18:10:02.980Z,98252.05
2017-12-27T18:12:31.179Z,98260.38
2017-12-27T18:14:59.581Z,98260.17
2017-12-27T18:17:27.272Z,98263.72
2017-12-27T18:19:55.111Z,98266.98
2017-12-27T18:22:22.739Z,98279.67
2017-12-27T18:24:50.381Z,98270.64
2017-12-27T18:27:18.246Z,98280.20
2017-12-27T18:29:46.215Z,98273.48
2017-12-27T18:32:14.184Z,98273.88
2017-12-27T18:34:41.823Z,98267.09
2017-12-27T18:37:09.429Z,98269.23
2017-12-27T18:39:37.538Z,98267.79
2017-12-27T18:42:05.294Z,98268.72
2017-12-27T18:44:32.892Z,98272.16
2017-12-27T18:47:00.500Z,98264.34
2017-12-27T18:49:28.146Z,98267.38
2017-12-27T18:52:08.361Z,98262.81
2017-12-27T18:54:48.970Z,98262.81
2017-12-27T18:57:22.371Z,98259.76
2017-12-27T19:00:06.828Z,98265.85
2017-12-27T19:02:36.850Z,98275.49
2017-12-27T19:05:13.633Z,98277.52
2017-12-27T19:10:40.745Z,98284.72
2017-12-27T19:13:09.103Z,98285.73
2017-12-27T19:15:57.515Z,98279.02
2017-12-27T19:18:31.396Z,98284.20
2017-12-27T19:20:59.798Z,98284.72
2017-12-27T19:23:35.263Z,98282.60
2017-12-27T19:28:59.137Z,98285.61
2017-12-27T19:34:45.055Z,98279.39
2017-12-27T19:37:16.319Z,98281.72
2017-12-27T19:45:48.253Z,98287.39
2017-12-27T19:48:20.366Z,98282.59
2017-12-27T19:51:04.004Z,98279.86
2017-12-27T19:56:57.137Z,98293.16
2017-12-27T19:59:41.712Z,98291.64
2017-12-27T20:02:19.277Z,98296.88
2017-12-27T20:04:48.762Z,98300.77
2017-12-27T20:07:17.546Z,98297.56
2017-12-27T20:09:46.067Z,98299.01
2017-12-27T20:12:14.915Z,98293.52
2017-12-27T20:14:54.880Z,98291.57
2017-12-27T20:17:37.751Z,98297.35
2017-12-27T20:20:06.472Z,98289.38
2017-12-27T20:22:34.113Z,98288.09
2017-12-27T20:25:23.296Z,98291.33
2017-12-27T20:28:06.474Z,98295.54
2017-12-27T20:30:49.355Z,98288.13
2017-12-27T20:33:27.251Z,98288.53
2017-12-27T20:35:55.496Z,98290.92
2017-12-27T20:38:23.081Z,98287.69
2017-12-27T20:40:50.692Z,98285.67
2017-12-27T20:43:18.364Z,98279.61
2017-12-27T20:45:47.938Z,98277.00
2017-12-27T20:48:36.440Z,98275.80
2017-12-27T20:51:05.939Z,98275.52
2017-12-27T20:53:35.038Z,98280.91
2017-12-27T20:56:03.112Z,98280.05
2017-12-27T20:58:32.192Z,98276.00
2017-12-27T21:01:00.621Z,98281.25
2017-12-27T21:03:51.206Z,98283.81
2017-12-27T21:06:19.914Z,98282.66
2017-12-27T21:08:47.929Z,98286.72
2017-12-27T21:11:15.967Z,98288.41
2017-12-27T21:13:43.836Z,98293.19
2017-12-27T21:16:12.827Z,98289.04
2017-12-27T21:18:40.724Z,98287.97
2017-12-27T21:21:08.672Z,98286.34
2017-12-27T21:23:36.260Z,98285.11
2017-12-27T21:26:03.880Z,98286.70
2017-12-27T21:28:31.759Z,98275.59
2017-12-27T21:30:59.354Z,98283.66
2017-12-27T21:33:26.931Z,98283.34
2017-12-27T21:35:54.564Z,98284.34
2017-12-27T21:38:22.139Z,98284.34
2017-12-27T21:40:49.719Z,98290.56
2017-12-27T21:43:17.350Z,98281.14
2017-12-27T21:45:44.941Z,98280.42
2017-12-27T21:48:18.115Z,98282.43
2017-12-27T21:50:45.686Z,98281.78
2017-12-27T21:53:13.763Z,98283.88
2017-12-27T21:55:41.364Z,98290.06
2017-12-27T21:58:14.471Z,98290.84
2017-12-27T22:00:47.623Z,98288.13
2017-12-27T22:03:15.528Z,98289.17
2017-12-27T22:05:43.099Z,98293.81
2017-12-27T22:08:10.669Z,98290.39
2017-12-27T22:10:38.272Z,98289.36
2017-12-27T22:13:06.178Z,98288.70
2017-12-27T22:15:33.812Z,98299.75
2017-12-27T22:18:01.404Z,98288.93
2017-12-27T22:20:35.009Z,98296.43
2017-12-27T22:23:02.873Z,98296.20
2017-12-27T22:25:30.472Z,98295.57
2017-12-27T22:27:58.102Z,98288.80
2017-12-27T22:30:25.958Z,98289.34
2017-12-27T22:32:53.567Z,98277.89
2017-12-27T22:35:21.201Z,98275.52
2017-12-27T22:37:48.779Z,98277.58
2017-12-27T22:40:16.716Z,98280.16
2017-12-27T22:42:44.404Z,98279.75
2017-12-27T22:45:12.028Z,98278.62
2017-12-27T22:47:39.619Z,98278.26
2017-12-27T22:50:07.220Z,98284.98
2017-12-27T22:52:34.834Z,98287.98
2017-12-27T22:55:02.424Z,98277.38
2017-12-27T22:57:30.361Z,98280.37
2017-12-27T22:59:57.976Z,98285.80
2017-12-27T23:02:25.588Z,98301.63
2017-12-27T23:04:53.454Z,98302.35
2017-12-27T23:07:21.062Z,98298.98
2017-12-27T23:09:48.673Z,98306.37
2017-12-27T23:12:16.308Z,98306.87
2017-12-27T23:14:43.888Z,98304.41
2017-12-27T23:17:11.767Z,98296.13
2017-12-27T23:19:39.350Z,98298.11
2017-12-27T23:22:07.296Z,98299.14
2017-12-27T23:24:34.886Z,98303.91
2017-12-27T23:27:02.472Z,98307.05
2017-12-27T23:29:30.100Z,98303.89
2017-12-27T23:31:57.684Z,98295.65
2017-12-27T23:34:25.298Z,98290.77
2017-12-27T23:36:52.878Z,98292.66
2017-12-27T23:39:20.457Z,98290.34
2017-12-27T23:41:49.048Z,98297.88
2017-12-27T23:44:16.642Z,98295.66
2017-12-27T23:46:44.287Z,98295.23
2017-12-27T23:49:11.887Z,98303.47
2017-12-27T23:51:39.517Z,98298.44
2017-12-27T23:54:07.422Z,98302.02
2017-12-27T23:56:35.020Z,98306.20
2017-12-27T23:59:02.624Z,98313.14
